sensor_id;sensor_type;location;lat;lon;timestamp;temperature;humidity
2497;DHT22;1259;48.306;14.374;2023-09-08T00:00:38;18.30;99.60
2497;DHT22;1259;48.306;14.374;2023-09-08T00:03:05;18.30;99.80
2497;DHT22;1259;48.306;14.374;2023-09-08T00:05:32;18.40;99.30
2497;DHT22;1259;48.306;14.374;2023-09-08T00:07:59;18.40;99.10
2497;DHT22;1259;48.306;14.374;2023-09-08T00:10:25;18.30;99.10
2497;DHT22;1259;48.306;14.374;2023-09-08T00:12:53;18.40;99.00
2497;DHT22;1259;48.306;14.374;2023-09-08T00:15:20;18.30;99.00
2497;DHT22;1259;48.306;14.374;2023-09-08T00:17:47;18.30;99.10
2497;DHT22;1259;48.306;14.374;2023-09-08T00:20:13;18.30;98.60
2497;DHT22;1259;48.306;14.374;2023-09-08T00:22:40;18.30;98.80
2497;DHT22;1259;48.306;14.374;2023-09-08T00:25:07;18.30;98.70
2497;DHT22;1259;48.306;14.374;2023-09-08T00:27:34;18.30;98.70
2497;DHT22;1259;48.306;14.374;2023-09-08T00:30:02;18.20;99.00
2497;DHT22;1259;48.306;14.374;2023-09-08T00:32:29;18.20;99.10
2497;DHT22;1259;48.306;14.374;2023-09-08T00:34:55;18.30;98.90
2497;DHT22;1259;48.306;14.374;2023-09-08T00:37:22;18.20;99.50
2497;DHT22;1259;48.306;14.374;2023-09-08T00:39:49;18.10;99.40
2497;DHT22;1259;48.306;14.374;2023-09-08T00:42:16;18.10;99.40
2497;DHT22;1259;48.306;14.374;2023-09-08T00:44:42;18.20;99.20
2497;DHT22;1259;48.306;14.374;2023-09-08T00:47:10;18.10;99.60
2497;DHT22;1259;48.306;14.374;2023-09-08T00:49:37;18.10;99.80
2497;DHT22;1259;48.306;14.374;2023-09-08T00:52:04;18.10;99.80
2497;DHT22;1259;48.306;14.374;2023-09-08T00:54:31;18.00;99.90
2497;DHT22;1259;48.306;14.374;2023-09-08T00:56:58;18.10;99.60
2497;DHT22;1259;48.306;14.374;2023-09-08T00:59:27;18.00;99.90
2497;DHT22;1259;48.306;14.374;2023-09-08T01:01:54;18.00;99.90
2497;DHT22;1259;48.306;14.374;2023-09-08T01:04:22;18.00;99.90
2497;DHT22;1259;48.306;14.374;2023-09-08T01:06:49;18.00;99.90
2497;DHT22;1259;48.306;14.374;2023-09-08T01:09:16;18.10;99.60
2497;DHT22;1259;48.306;14.374;2023-09-08T01:11:43;18.10;99.50
2497;DHT22;1259;48.306;14.374;2023-09-08T01:14:11;18.00;99.60
2497;DHT22;1259;48.306;14.374;2023-09-08T01:16:38;18.10;99.60
2497;DHT22;1259;48.306;14.374;2023-09-08T01:19:05;18.10;99.50
2497;DHT22;1259;48.306;14.374;2023-09-08T01:21:50;18.00;99.50
2497;DHT22;1259;48.306;14.374;2023-09-08T01:24:29;17.90;99.90
2497;DHT22;1259;48.306;14.374;2023-09-08T01:27:01;17.90;99.90
2497;DHT22;1259;48.306;14.374;2023-09-08T01:29:27;17.90;99.90
2497;DHT22;1259;48.306;14.374;2023-09-08T01:31:55;17.90;99.90
2497;DHT22;1259;48.306;14.374;2023-09-08T01:34:23;18.00;99.60
2497;DHT22;1259;48.306;14.374;2023-09-08T01:36:49;17.90;99.80
2497;DHT22;1259;48.306;14.374;2023-09-08T01:39:16;17.90;99.90
2497;DHT22;1259;48.306;14.374;2023-09-08T01:41:43;17.90;99.60
2497;DHT22;1259;48.306;14.374;2023-09-08T01:44:11;17.90;99.40
2497;DHT22;1259;48.306;14.374;2023-09-08T01:46:38;17.90;99.30
2497;DHT22;1259;48.306;14.374;2023-09-08T01:49:06;17.90;99.30
2497;DHT22;1259;48.306;14.374;2023-09-08T01:51:33;17.90;99.40
2497;DHT22;1259;48.306;14.374;2023-09-08T01:54:00;17.80;99.40
2497;DHT22;1259;48.306;14.374;2023-09-08T01:56:27;17.80;99.10
2497;DHT22;1259;48.306;14.374;2023-09-08T01:58:53;17.80;99.00
2497;DHT22;1259;48.306;14.374;2023-09-08T02:01:21;17.80;99.20
2497;DHT22;1259;48.306;14.374;2023-09-08T02:03:48;17.90;98.60
2497;DHT22;1259;48.306;14.374;2023-09-08T02:06:15;17.80;98.80
2497;DHT22;1259;48.306;14.374;2023-09-08T02:08:41;17.80;98.70
2497;DHT22;1259;48.306;14.374;2023-09-08T02:11:08;17.70;98.60
2497;DHT22;1259;48.306;14.374;2023-09-08T02:13:34;17.80;98.40
2497;DHT22;1259;48.306;14.374;2023-09-08T02:16:01;17.80;98.50
2497;DHT22;1259;48.306;14.374;2023-09-08T02:18:29;17.70;98.60
2497;DHT22;1259;48.306;14.374;2023-09-08T02:20:56;17.70;98.50
2497;DHT22;1259;48.306;14.374;2023-09-08T02:23:22;17.60;98.80
2497;DHT22;1259;48.306;14.374;2023-09-08T02:25:49;17.70;98.50
2497;DHT22;1259;48.306;14.374;2023-09-08T02:28:16;17.60;98.50
2497;DHT22;1259;48.306;14.374;2023-09-08T02:30:42;17.60;98.40
2497;DHT22;1259;48.306;14.374;2023-09-08T02:33:09;17.70;98.10
2497;DHT22;1259;48.306;14.374;2023-09-08T02:35:38;17.60;98.30
2497;DHT22;1259;48.306;14.374;2023-09-08T02:38:05;17.60;98.40
2497;DHT22;1259;48.306;14.374;2023-09-08T02:40:31;17.60;97.80
2497;DHT22;1259;48.306;14.374;2023-09-08T02:42:59;17.60;97.90
2497;DHT22;1259;48.306;14.374;2023-09-08T02:45:26;17.60;97.90
2497;DHT22;1259;48.306;14.374;2023-09-08T02:47:53;17.50;97.90
2497;DHT22;1259;48.306;14.374;2023-09-08T02:50:19;17.60;97.50
2497;DHT22;1259;48.306;14.374;2023-09-08T02:52:47;17.50;97.80
2497;DHT22;1259;48.306;14.374;2023-09-08T02:55:14;17.60;97.00
2497;DHT22;1259;48.306;14.374;2023-09-08T02:57:41;17.50;97.40
2497;DHT22;1259;48.306;14.374;2023-09-08T03:00:08;17.50;97.10
2497;DHT22;1259;48.306;14.374;2023-09-08T03:02:34;17.50;96.70
2497;DHT22;1259;48.306;14.374;2023-09-08T03:05:01;17.50;96.70
2497;DHT22;1259;48.306;14.374;2023-09-08T03:07:28;17.50;96.40
2497;DHT22;1259;48.306;14.374;2023-09-08T03:09:56;17.40;96.60
2497;DHT22;1259;48.306;14.374;2023-09-08T03:12:23;17.40;96.40
2497;DHT22;1259;48.306;14.374;2023-09-08T03:14:49;17.40;96.60
2497;DHT22;1259;48.306;14.374;2023-09-08T03:17:16;17.30;96.40
2497;DHT22;1259;48.306;14.374;2023-09-08T03:19:44;17.30;96.70
2497;DHT22;1259;48.306;14.374;2023-09-08T03:22:11;17.20;96.70
2497;DHT22;1259;48.306;14.374;2023-09-08T03:24:38;17.30;96.20
2497;DHT22;1259;48.306;14.374;2023-09-08T03:27:06;17.30;96.10
2497;DHT22;1259;48.306;14.374;2023-09-08T03:29:32;17.20;96.20
2497;DHT22;1259;48.306;14.374;2023-09-08T03:31:59;17.20;96.20
2497;DHT22;1259;48.306;14.374;2023-09-08T03:34:26;17.10;96.20
2497;DHT22;1259;48.306;14.374;2023-09-08T03:36:53;17.10;95.90
2497;DHT22;1259;48.306;14.374;2023-09-08T03:39:19;17.10;95.70
2497;DHT22;1259;48.306;14.374;2023-09-08T03:41:46;17.20;95.30
2497;DHT22;1259;48.306;14.374;2023-09-08T03:44:14;17.20;95.40
2497;DHT22;1259;48.306;14.374;2023-09-08T03:46:41;17.20;95.20
2497;DHT22;1259;48.306;14.374;2023-09-08T03:49:07;17.20;94.80
2497;DHT22;1259;48.306;14.374;2023-09-08T03:51:34;17.20;94.80
2497;DHT22;1259;48.306;14.374;2023-09-08T03:54:01;17.20;94.60
2497;DHT22;1259;48.306;14.374;2023-09-08T03:56:28;17.10;94.40
2497;DHT22;1259;48.306;14.374;2023-09-08T03:58:55;17.10;94.60
2497;DHT22;1259;48.306;14.374;2023-09-08T04:01:23;17.10;94.60
2497;DHT22;1259;48.306;14.374;2023-09-08T04:03:50;17.10;94.20
2497;DHT22;1259;48.306;14.374;2023-09-08T04:06:16;17.10;93.80
2497;DHT22;1259;48.306;14.374;2023-09-08T04:08:43;17.10;93.90
2497;DHT22;1259;48.306;14.374;2023-09-08T04:11:10;17.10;93.90
2497;DHT22;1259;48.306;14.374;2023-09-08T04:13:36;17.00;94.10
2497;DHT22;1259;48.306;14.374;2023-09-08T04:16:03;17.00;94.00
2497;DHT22;1259;48.306;14.374;2023-09-08T04:18:31;16.90;94.10
2497;DHT22;1259;48.306;14.374;2023-09-08T04:20:58;16.90;94.10
2497;DHT22;1259;48.306;14.374;2023-09-08T04:23:25;16.90;94.00
2497;DHT22;1259;48.306;14.374;2023-09-08T04:25:51;16.90;94.10
2497;DHT22;1259;48.306;14.374;2023-09-08T04:28:18;16.90;94.30
2497;DHT22;1259;48.306;14.374;2023-09-08T04:30:45;16.90;94.40
2497;DHT22;1259;48.306;14.374;2023-09-08T04:33:11;16.90;94.10
2497;DHT22;1259;48.306;14.374;2023-09-08T04:35:39;16.90;94.10
2497;DHT22;1259;48.306;14.374;2023-09-08T04:38:06;16.80;94.30
2497;DHT22;1259;48.306;14.374;2023-09-08T04:40:33;16.90;94.30
2497;DHT22;1259;48.306;14.374;2023-09-08T04:43:00;16.90;94.10
2497;DHT22;1259;48.306;14.374;2023-09-08T04:45:26;16.80;94.20
2497;DHT22;1259;48.306;14.374;2023-09-08T04:47:53;16.80;94.30
2497;DHT22;1259;48.306;14.374;2023-09-08T04:50:20;16.90;94.40
2497;DHT22;1259;48.306;14.374;2023-09-08T04:52:48;16.90;94.20
2497;DHT22;1259;48.306;14.374;2023-09-08T04:55:14;16.90;94.60
2497;DHT22;1259;48.306;14.374;2023-09-08T04:57:41;16.90;94.00
2497;DHT22;1259;48.306;14.374;2023-09-08T05:00:08;16.90;93.80
2497;DHT22;1259;48.306;14.374;2023-09-08T05:02:35;17.00;93.60
2497;DHT22;1259;48.306;14.374;2023-09-08T05:05:01;17.10;93.60
2497;DHT22;1259;48.306;14.374;2023-09-08T05:07:28;17.10;93.60
2497;DHT22;1259;48.306;14.374;2023-09-08T05:09:56;17.10;93.90
2497;DHT22;1259;48.306;14.374;2023-09-08T05:12:23;17.10;93.90
2497;DHT22;1259;48.306;14.374;2023-09-08T05:14:49;17.20;93.50
2497;DHT22;1259;48.306;14.374;2023-09-08T05:17:21;17.20;93.70
2497;DHT22;1259;48.306;14.374;2023-09-08T05:19:48;17.20;93.40
2497;DHT22;1259;48.306;14.374;2023-09-08T05:22:15;17.30;93.70
2497;DHT22;1259;48.306;14.374;2023-09-08T05:24:41;17.30;93.70
2497;DHT22;1259;48.306;14.374;2023-09-08T05:27:09;17.40;94.00
2497;DHT22;1259;48.306;14.374;2023-09-08T05:29:36;17.40;93.90
2497;DHT22;1259;48.306;14.374;2023-09-08T05:32:03;17.40;93.80
2497;DHT22;1259;48.306;14.374;2023-09-08T05:34:29;17.40;94.00
2497;DHT22;1259;48.306;14.374;2023-09-08T05:36:56;17.50;94.00
2497;DHT22;1259;48.306;14.374;2023-09-08T05:39:23;17.50;93.80
2497;DHT22;1259;48.306;14.374;2023-09-08T05:41:49;17.50;93.80
2497;DHT22;1259;48.306;14.374;2023-09-08T05:44:17;17.60;93.50
2497;DHT22;1259;48.306;14.374;2023-09-08T05:46:44;17.70;93.90
2497;DHT22;1259;48.306;14.374;2023-09-08T05:49:11;17.70;93.70
2497;DHT22;1259;48.306;14.374;2023-09-08T05:51:38;17.80;93.40
2497;DHT22;1259;48.306;14.374;2023-09-08T05:54:04;17.80;93.80
2497;DHT22;1259;48.306;14.374;2023-09-08T05:56:31;17.90;94.00
2497;DHT22;1259;48.306;14.374;2023-09-08T05:58:58;17.90;93.50
2497;DHT22;1259;48.306;14.374;2023-09-08T06:01:27;18.00;93.50
2497;DHT22;1259;48.306;14.374;2023-09-08T06:03:54;18.00;93.40
2497;DHT22;1259;48.306;14.374;2023-09-08T06:06:21;18.10;93.60
2497;DHT22;1259;48.306;14.374;2023-09-08T06:08:47;18.20;93.90
2497;DHT22;1259;48.306;14.374;2023-09-08T06:11:14;18.20;93.80
2497;DHT22;1259;48.306;14.374;2023-09-08T06:13:41;18.30;94.10
2497;DHT22;1259;48.306;14.374;2023-09-08T06:16:07;18.40;94.60
2497;DHT22;1259;48.306;14.374;2023-09-08T06:18:35;18.40;94.50
2497;DHT22;1259;48.306;14.374;2023-09-08T06:21:05;18.50;94.50
2497;DHT22;1259;48.306;14.374;2023-09-08T06:23:32;18.60;95.70
2497;DHT22;1259;48.306;14.374;2023-09-08T06:25:59;18.70;94.70
2497;DHT22;1259;48.306;14.374;2023-09-08T06:28:26;18.80;95.10
2497;DHT22;1259;48.306;14.374;2023-09-08T06:30:53;18.80;95.20
2497;DHT22;1259;48.306;14.374;2023-09-08T06:33:19;18.90;96.60
2497;DHT22;1259;48.306;14.374;2023-09-08T06:35:48;19.10;98.40
2497;DHT22;1259;48.306;14.374;2023-09-08T06:38:15;19.30;99.90
2497;DHT22;1259;48.306;14.374;2023-09-08T06:40:42;19.20;98.40
2497;DHT22;1259;48.306;14.374;2023-09-08T06:43:09;19.40;99.90
2497;DHT22;1259;48.306;14.374;2023-09-08T06:45:37;19.60;99.90
2497;DHT22;1259;48.306;14.374;2023-09-08T06:48:04;19.70;99.90
2497;DHT22;1259;48.306;14.374;2023-09-08T06:50:31;19.70;99.50
2497;DHT22;1259;48.306;14.374;2023-09-08T06:52:59;19.90;99.90
2497;DHT22;1259;48.306;14.374;2023-09-08T06:55:26;20.00;99.90
2497;DHT22;1259;48.306;14.374;2023-09-08T06:57:53;20.20;99.90
2497;DHT22;1259;48.306;14.374;2023-09-08T07:00:20;20.20;99.90
2497;DHT22;1259;48.306;14.374;2023-09-08T07:02:46;20.00;99.90
2497;DHT22;1259;48.306;14.374;2023-09-08T07:05:14;20.10;99.90
2497;DHT22;1259;48.306;14.374;2023-09-08T07:07:41;20.20;98.60
2497;DHT22;1259;48.306;14.374;2023-09-08T07:10:10;20.60;98.90
2497;DHT22;1259;48.306;14.374;2023-09-08T07:12:37;20.70;98.20
2497;DHT22;1259;48.306;14.374;2023-09-08T07:15:04;20.70;98.40
2497;DHT22;1259;48.306;14.374;2023-09-08T07:17:31;20.80;97.10
2497;DHT22;1259;48.306;14.374;2023-09-08T07:19:58;20.80;97.20
2497;DHT22;1259;48.306;14.374;2023-09-08T07:22:24;20.80;96.70
2497;DHT22;1259;48.306;14.374;2023-09-08T07:24:51;20.60;95.10
2497;DHT22;1259;48.306;14.374;2023-09-08T07:27:19;20.80;96.50
2497;DHT22;1259;48.306;14.374;2023-09-08T07:29:46;20.90;97.90
2497;DHT22;1259;48.306;14.374;2023-09-08T07:32:13;21.00;96.80
2497;DHT22;1259;48.306;14.374;2023-09-08T07:34:39;21.00;97.30
2497;DHT22;1259;48.306;14.374;2023-09-08T07:37:06;21.00;97.20
2497;DHT22;1259;48.306;14.374;2023-09-08T07:39:33;21.30;96.10
2497;DHT22;1259;48.306;14.374;2023-09-08T07:42:00;21.40;96.40
2497;DHT22;1259;48.306;14.374;2023-09-08T07:44:28;21.50;96.10
2497;DHT22;1259;48.306;14.374;2023-09-08T07:46:55;21.50;95.40
2497;DHT22;1259;48.306;14.374;2023-09-08T07:49:23;21.60;96.80
2497;DHT22;1259;48.306;14.374;2023-09-08T07:51:50;21.90;96.00
2497;DHT22;1259;48.306;14.374;2023-09-08T07:54:17;22.20;96.90
2497;DHT22;1259;48.306;14.374;2023-09-08T07:56:43;22.10;95.20
2497;DHT22;1259;48.306;14.374;2023-09-08T07:59:10;22.20;95.60
2497;DHT22;1259;48.306;14.374;2023-09-08T08:01:38;22.10;95.40
2497;DHT22;1259;48.306;14.374;2023-09-08T08:04:05;22.20;96.60
2497;DHT22;1259;48.306;14.374;2023-09-08T08:06:31;22.20;95.40
2497;DHT22;1259;48.306;14.374;2023-09-08T08:08:58;22.30;96.50
2497;DHT22;1259;48.306;14.374;2023-09-08T08:11:25;22.30;93.00
2497;DHT22;1259;48.306;14.374;2023-09-08T08:13:52;22.40;95.50
2497;DHT22;1259;48.306;14.374;2023-09-08T08:16:18;22.50;94.30
2497;DHT22;1259;48.306;14.374;2023-09-08T08:18:48;22.10;93.70
2497;DHT22;1259;48.306;14.374;2023-09-08T08:21:15;22.30;96.80
2497;DHT22;1259;48.306;14.374;2023-09-08T08:23:41;22.10;94.10
2497;DHT22;1259;48.306;14.374;2023-09-08T08:26:08;22.30;95.30
2497;DHT22;1259;48.306;14.374;2023-09-08T08:28:35;22.00;95.40
2497;DHT22;1259;48.306;14.374;2023-09-08T08:31:01;22.40;98.20
2497;DHT22;1259;48.306;14.374;2023-09-08T08:33:29;22.60;95.90
2497;DHT22;1259;48.306;14.374;2023-09-08T08:35:57;22.80;96.20
2497;DHT22;1259;48.306;14.374;2023-09-08T08:38:24;23.10;96.40
2497;DHT22;1259;48.306;14.374;2023-09-08T08:40:50;23.40;97.00
2497;DHT22;1259;48.306;14.374;2023-09-08T08:43:17;23.50;95.90
2497;DHT22;1259;48.306;14.374;2023-09-08T08:45:44;23.60;97.10
2497;DHT22;1259;48.306;14.374;2023-09-08T08:48:12;23.70;96.60
2497;DHT22;1259;48.306;14.374;2023-09-08T08:50:39;23.60;95.00
2497;DHT22;1259;48.306;14.374;2023-09-08T08:53:09;23.40;92.90
2497;DHT22;1259;48.306;14.374;2023-09-08T08:55:36;23.20;95.70
2497;DHT22;1259;48.306;14.374;2023-09-08T08:58:04;23.40;94.90
2497;DHT22;1259;48.306;14.374;2023-09-08T09:00:33;23.70;95.50
2497;DHT22;1259;48.306;14.374;2023-09-08T09:03:00;23.70;93.80
2497;DHT22;1259;48.306;14.374;2023-09-08T09:05:27;23.80;96.60
2497;DHT22;1259;48.306;14.374;2023-09-08T09:07:54;23.80;96.30
2497;DHT22;1259;48.306;14.374;2023-09-08T09:10:25;24.00;96.80
2497;DHT22;1259;48.306;14.374;2023-09-08T09:12:52;24.10;94.80
2497;DHT22;1259;48.306;14.374;2023-09-08T09:15:27;24.30;96.30
2497;DHT22;1259;48.306;14.374;2023-09-08T09:18:01;24.30;96.10
2497;DHT22;1259;48.306;14.374;2023-09-08T09:20:28;24.50;96.30
2497;DHT22;1259;48.306;14.374;2023-09-08T09:22:55;24.40;95.40
2497;DHT22;1259;48.306;14.374;2023-09-08T09:25:22;24.10;93.70
2497;DHT22;1259;48.306;14.374;2023-09-08T09:27:51;24.10;97.90
2497;DHT22;1259;48.306;14.374;2023-09-08T09:30:18;24.50;96.90
2497;DHT22;1259;48.306;14.374;2023-09-08T09:32:45;24.40;94.90
2497;DHT22;1259;48.306;14.374;2023-09-08T09:35:14;24.50;93.50
2497;DHT22;1259;48.306;14.374;2023-09-08T09:37:41;24.40;95.90
2497;DHT22;1259;48.306;14.374;2023-09-08T09:40:09;24.60;94.50
2497;DHT22;1259;48.306;14.374;2023-09-08T09:42:36;24.50;94.10
2497;DHT22;1259;48.306;14.374;2023-09-08T09:45:06;24.70;94.10
2497;DHT22;1259;48.306;14.374;2023-09-08T09:47:34;25.00;95.00
2497;DHT22;1259;48.306;14.374;2023-09-08T09:50:00;24.80;92.80
2497;DHT22;1259;48.306;14.374;2023-09-08T09:52:27;24.70;92.40
2497;DHT22;1259;48.306;14.374;2023-09-08T09:54:57;24.80;91.10
2497;DHT22;1259;48.306;14.374;2023-09-08T09:57:24;24.70;92.50
2497;DHT22;1259;48.306;14.374;2023-09-08T09:59:51;24.70;91.90
2497;DHT22;1259;48.306;14.374;2023-09-08T10:02:21;24.90;94.10
2497;DHT22;1259;48.306;14.374;2023-09-08T10:04:48;24.90;93.00
2497;DHT22;1259;48.306;14.374;2023-09-08T10:07:16;25.10;93.80
2497;DHT22;1259;48.306;14.374;2023-09-08T10:09:42;25.00;91.80
2497;DHT22;1259;48.306;14.374;2023-09-08T10:12:09;25.20;93.00
2497;DHT22;1259;48.306;14.374;2023-09-08T10:14:41;25.30;92.10
2497;DHT22;1259;48.306;14.374;2023-09-08T10:17:11;25.20;92.70
2497;DHT22;1259;48.306;14.374;2023-09-08T10:19:40;25.40;92.60
2497;DHT22;1259;48.306;14.374;2023-09-08T10:22:07;25.50;93.90
2497;DHT22;1259;48.306;14.374;2023-09-08T10:24:35;25.40;91.50
2497;DHT22;1259;48.306;14.374;2023-09-08T10:27:04;25.40;91.60
2497;DHT22;1259;48.306;14.374;2023-09-08T10:29:32;25.50;90.80
2497;DHT22;1259;48.306;14.374;2023-09-08T10:31:59;25.50;91.70
2497;DHT22;1259;48.306;14.374;2023-09-08T10:34:25;25.50;90.00
2497;DHT22;1259;48.306;14.374;2023-09-08T10:36:54;25.60;92.00
2497;DHT22;1259;48.306;14.374;2023-09-08T10:39:27;25.60;90.70
2497;DHT22;1259;48.306;14.374;2023-09-08T10:44:38;25.80;91.10
2497;DHT22;1259;48.306;14.374;2023-09-08T10:47:04;25.70;91.60
2497;DHT22;1259;48.306;14.374;2023-09-08T10:49:34;25.80;90.70
2497;DHT22;1259;48.306;14.374;2023-09-08T10:52:06;25.90;91.60
2497;DHT22;1259;48.306;14.374;2023-09-08T10:54:40;25.50;90.30
2497;DHT22;1259;48.306;14.374;2023-09-08T10:57:07;25.30;90.70
2497;DHT22;1259;48.306;14.374;2023-09-08T10:59:38;25.30;90.90
2497;DHT22;1259;48.306;14.374;2023-09-08T11:02:05;25.50;92.00
2497;DHT22;1259;48.306;14.374;2023-09-08T11:04:32;25.60;92.60
2497;DHT22;1259;48.306;14.374;2023-09-08T11:07:01;25.90;92.50
2497;DHT22;1259;48.306;14.374;2023-09-08T11:09:29;25.20;88.10
2497;DHT22;1259;48.306;14.374;2023-09-08T11:12:01;25.50;92.10
2497;DHT22;1259;48.306;14.374;2023-09-08T11:14:29;25.60;91.10
2497;DHT22;1259;48.306;14.374;2023-09-08T11:16:57;25.70;90.40
2497;DHT22;1259;48.306;14.374;2023-09-08T11:19:24;25.70;90.50
2497;DHT22;1259;48.306;14.374;2023-09-08T11:21:50;25.70;88.00
2497;DHT22;1259;48.306;14.374;2023-09-08T11:24:17;25.80;90.70
2497;DHT22;1259;48.306;14.374;2023-09-08T11:26:45;25.60;80.10
2497;DHT22;1259;48.306;14.374;2023-09-08T11:29:15;25.70;84.80
2497;DHT22;1259;48.306;14.374;2023-09-08T11:31:42;25.90;86.90
2497;DHT22;1259;48.306;14.374;2023-09-08T11:34:11;26.00;87.00
2497;DHT22;1259;48.306;14.374;2023-09-08T11:36:39;26.00;83.70
2497;DHT22;1259;48.306;14.374;2023-09-08T11:39:05;26.00;85.10
2497;DHT22;1259;48.306;14.374;2023-09-08T11:41:33;25.90;83.40
2497;DHT22;1259;48.306;14.374;2023-09-08T11:44:02;25.80;80.80
2497;DHT22;1259;48.306;14.374;2023-09-08T11:46:28;25.50;81.00
2497;DHT22;1259;48.306;14.374;2023-09-08T11:48:56;25.70;82.80
2497;DHT22;1259;48.306;14.374;2023-09-08T11:51:22;25.80;82.00
2497;DHT22;1259;48.306;14.374;2023-09-08T11:53:49;25.70;80.70
2497;DHT22;1259;48.306;14.374;2023-09-08T11:56:16;25.80;78.00
2497;DHT22;1259;48.306;14.374;2023-09-08T11:58:42;25.50;78.00
2497;DHT22;1259;48.306;14.374;2023-09-08T12:01:11;25.60;80.40
2497;DHT22;1259;48.306;14.374;2023-09-08T12:03:50;25.70;82.20
2497;DHT22;1259;48.306;14.374;2023-09-08T12:06:17;25.70;78.50
2497;DHT22;1259;48.306;14.374;2023-09-08T12:08:44;25.30;75.30
2497;DHT22;1259;48.306;14.374;2023-09-08T12:11:10;25.40;78.30
2497;DHT22;1259;48.306;14.374;2023-09-08T12:13:37;25.60;80.40
2497;DHT22;1259;48.306;14.374;2023-09-08T12:16:18;25.70;78.20
2497;DHT22;1259;48.306;14.374;2023-09-08T12:18:44;25.80;83.30
2497;DHT22;1259;48.306;14.374;2023-09-08T12:21:11;25.70;80.90
2497;DHT22;1259;48.306;14.374;2023-09-08T12:23:46;25.80;80.80
2497;DHT22;1259;48.306;14.374;2023-09-08T12:26:13;25.90;80.10
2497;DHT22;1259;48.306;14.374;2023-09-08T12:28:41;25.90;80.20
2497;DHT22;1259;48.306;14.374;2023-09-08T12:31:08;26.00;76.60
2497;DHT22;1259;48.306;14.374;2023-09-08T12:33:36;26.10;77.70
2497;DHT22;1259;48.306;14.374;2023-09-08T12:36:09;26.20;80.00
2497;DHT22;1259;48.306;14.374;2023-09-08T12:38:36;26.10;78.40
2497;DHT22;1259;48.306;14.374;2023-09-08T12:41:03;26.10;79.00
2497;DHT22;1259;48.306;14.374;2023-09-08T12:43:29;26.10;78.10
2497;DHT22;1259;48.306;14.374;2023-09-08T12:45:56;25.80;75.70
2497;DHT22;1259;48.306;14.374;2023-09-08T12:48:23;26.00;81.00
2497;DHT22;1259;48.306;14.374;2023-09-08T12:50:51;26.00;77.40
2497;DHT22;1259;48.306;14.374;2023-09-08T12:53:18;26.10;77.60
2497;DHT22;1259;48.306;14.374;2023-09-08T12:55:45;26.10;74.50
2497;DHT22;1259;48.306;14.374;2023-09-08T12:58:12;25.90;73.50
2497;DHT22;1259;48.306;14.374;2023-09-08T13:00:38;25.80;75.60
2497;DHT22;1259;48.306;14.374;2023-09-08T13:03:05;25.70;75.70
2497;DHT22;1259;48.306;14.374;2023-09-08T13:05:32;25.60;73.90
2497;DHT22;1259;48.306;14.374;2023-09-08T13:08:00;25.70;78.70
2497;DHT22;1259;48.306;14.374;2023-09-08T13:10:26;25.80;77.40
2497;DHT22;1259;48.306;14.374;2023-09-08T13:12:53;25.90;77.80
2497;DHT22;1259;48.306;14.374;2023-09-08T13:15:20;25.90;76.50
2497;DHT22;1259;48.306;14.374;2023-09-08T13:17:47;26.00;76.80
2497;DHT22;1259;48.306;14.374;2023-09-08T13:20:13;25.80;78.40
2497;DHT22;1259;48.306;14.374;2023-09-08T13:22:40;25.80;75.80
2497;DHT22;1259;48.306;14.374;2023-09-08T13:25:08;25.90;76.60
2497;DHT22;1259;48.306;14.374;2023-09-08T13:27:35;25.90;77.60
2497;DHT22;1259;48.306;14.374;2023-09-08T13:30:08;26.10;81.30
2497;DHT22;1259;48.306;14.374;2023-09-08T13:32:35;26.00;74.20
2497;DHT22;1259;48.306;14.374;2023-09-08T13:35:02;25.80;73.70
2497;DHT22;1259;48.306;14.374;2023-09-08T13:37:28;25.80;75.30
2497;DHT22;1259;48.306;14.374;2023-09-08T13:39:56;25.70;70.90
2497;DHT22;1259;48.306;14.374;2023-09-08T13:42:24;25.70;72.90
2497;DHT22;1259;48.306;14.374;2023-09-08T13:44:50;25.80;75.10
2497;DHT22;1259;48.306;14.374;2023-09-08T13:47:17;25.70;72.30
2497;DHT22;1259;48.306;14.374;2023-09-08T13:49:44;25.60;71.50
2497;DHT22;1259;48.306;14.374;2023-09-08T13:52:10;25.70;73.20
2497;DHT22;1259;48.306;14.374;2023-09-08T13:54:37;25.80;72.70
2497;DHT22;1259;48.306;14.374;2023-09-08T13:57:04;25.90;71.70
2497;DHT22;1259;48.306;14.374;2023-09-08T13:59:32;25.90;74.00
2497;DHT22;1259;48.306;14.374;2023-09-08T14:01:59;25.90;76.00
2497;DHT22;1259;48.306;14.374;2023-09-08T14:04:26;26.00;76.10
2497;DHT22;1259;48.306;14.374;2023-09-08T14:06:53;26.00;76.00
2497;DHT22;1259;48.306;14.374;2023-09-08T14:09:20;26.10;75.10
2497;DHT22;1259;48.306;14.374;2023-09-08T14:11:46;26.00;75.20
2497;DHT22;1259;48.306;14.374;2023-09-08T14:14:13;25.90;71.70
2497;DHT22;1259;48.306;14.374;2023-09-08T14:16:41;26.00;75.20
2497;DHT22;1259;48.306;14.374;2023-09-08T14:19:08;26.00;77.10
2497;DHT22;1259;48.306;14.374;2023-09-08T14:21:35;25.90;70.90
2497;DHT22;1259;48.306;14.374;2023-09-08T14:24:02;25.80;69.30
2497;DHT22;1259;48.306;14.374;2023-09-08T14:26:29;25.70;68.90
2497;DHT22;1259;48.306;14.374;2023-09-08T14:28:56;25.60;68.30
2497;DHT22;1259;48.306;14.374;2023-09-08T14:31:22;25.60;70.00
2497;DHT22;1259;48.306;14.374;2023-09-08T14:33:50;25.70;70.30
2497;DHT22;1259;48.306;14.374;2023-09-08T14:36:17;25.70;70.40
2497;DHT22;1259;48.306;14.374;2023-09-08T14:38:44;25.70;70.40
2497;DHT22;1259;48.306;14.374;2023-09-08T14:41:11;25.70;71.40
2497;DHT22;1259;48.306;14.374;2023-09-08T14:43:38;25.80;71.30
2497;DHT22;1259;48.306;14.374;2023-09-08T14:46:04;25.70;70.10
2497;DHT22;1259;48.306;14.374;2023-09-08T14:48:31;25.80;73.00
2497;DHT22;1259;48.306;14.374;2023-09-08T14:50:59;25.90;71.90
2497;DHT22;1259;48.306;14.374;2023-09-08T14:53:27;25.90;69.20
2497;DHT22;1259;48.306;14.374;2023-09-08T14:55:55;25.90;70.30
2497;DHT22;1259;48.306;14.374;2023-09-08T14:58:23;25.90;71.40
2497;DHT22;1259;48.306;14.374;2023-09-08T15:00:50;25.90;70.30
2497;DHT22;1259;48.306;14.374;2023-09-08T15:03:16;25.80;69.70
2497;DHT22;1259;48.306;14.374;2023-09-08T15:05:43;25.80;72.20
2497;DHT22;1259;48.306;14.374;2023-09-08T15:08:11;25.70;72.30
2497;DHT22;1259;48.306;14.374;2023-09-08T15:10:38;25.80;72.80
2497;DHT22;1259;48.306;14.374;2023-09-08T15:13:05;25.90;69.80
2497;DHT22;1259;48.306;14.374;2023-09-08T15:15:32;25.80;69.70
2497;DHT22;1259;48.306;14.374;2023-09-08T15:17:58;25.70;69.80
2497;DHT22;1259;48.306;14.374;2023-09-08T15:20:25;25.60;71.10
2497;DHT22;1259;48.306;14.374;2023-09-08T15:22:52;25.70;68.20
2497;DHT22;1259;48.306;14.374;2023-09-08T15:25:20;25.70;68.00
2497;DHT22;1259;48.306;14.374;2023-09-08T15:27:46;25.80;68.40
2497;DHT22;1259;48.306;14.374;2023-09-08T15:30:13;25.80;67.50
2497;DHT22;1259;48.306;14.374;2023-09-08T15:32:40;25.80;67.70
2497;DHT22;1259;48.306;14.374;2023-09-08T15:35:07;25.80;67.20
2497;DHT22;1259;48.306;14.374;2023-09-08T15:37:34;25.80;67.10
2497;DHT22;1259;48.306;14.374;2023-09-08T15:40:01;25.80;67.50
2497;DHT22;1259;48.306;14.374;2023-09-08T15:42:30;25.80;67.60
2497;DHT22;1259;48.306;14.374;2023-09-08T15:44:56;25.80;68.10
2497;DHT22;1259;48.306;14.374;2023-09-08T15:47:23;25.80;68.70